Time;durP1;ratioP1;P1;durP2;ratioP2;P2;SDS_P1;SDS_P2;PMS_P1;PMS_P2;Temp;Humidity;BMP_temperature;BMP_pressure;BME280_temperature;BME280_humidity;BME280_pressure;Samples;Min_cycle;Max_cycle;Signal;HPM_P1;HPM_P2
2022/05/19 00:01:25;;;;;;;9.05;5.18;;;21.40;95.10;;;;;;5048376;28;20372;-44
2022/05/19 00:03:51;;;;;;;5.90;5.30;;;21.30;95.10;;;;;;5048983;28;20571;-40
2022/05/19 00:06:16;;;;;;;6.68;5.50;;;21.40;95.20;;;;;;5048795;28;20029;-41
2022/05/19 00:08:42;;;;;;;8.63;6.53;;;21.40;95.30;;;;;;5049231;28;20037;-41
2022/05/19 00:11:16;;;;;;;7.90;5.38;;;21.30;95.40;;;;;;5048963;28;20021;-41
2022/05/19 00:13:43;;;;;;;6.97;5.47;;;21.30;95.40;;;;;;5029626;28;20030;-41
2022/05/19 00:16:09;;;;;;;6.18;5.18;;;21.30;95.40;;;;;;5043486;28;20188;-42
2022/05/19 00:18:35;;;;;;;6.95;5.25;;;21.30;95.40;;;;;;5047611;28;20056;-41
2022/05/19 00:21:01;;;;;;;8.23;5.28;;;21.40;95.50;;;;;;5049227;28;20040;-43
2022/05/19 00:23:27;;;;;;;6.53;5.10;;;21.30;95.40;;;;;;5048334;28;20041;-43
2022/05/19 00:25:52;;;;;;;9.82;5.55;;;21.30;95.50;;;;;;5048349;28;20028;-42
2022/05/19 00:28:18;;;;;;;6.25;5.32;;;21.30;95.50;;;;;;5049112;28;20492;-41
2022/05/19 00:30:43;;;;;;;6.82;5.60;;;21.30;95.50;;;;;;5048487;28;20108;-41
2022/05/19 00:33:10;;;;;;;9.05;5.90;;;21.30;95.50;;;;;;5048374;28;20035;-42
2022/05/19 00:35:38;;;;;;;6.30;5.40;;;21.30;95.60;;;;;;5048360;28;20040;-41
2022/05/19 00:38:04;;;;;;;8.07;6.35;;;21.30;95.60;;;;;;5048607;28;20488;-43
2022/05/19 00:40:30;;;;;;;7.95;6.57;;;21.20;95.60;;;;;;5047032;28;20037;-41
2022/05/19 00:42:55;;;;;;;7.30;5.97;;;21.20;95.70;;;;;;5048461;28;20029;-41
2022/05/19 00:45:23;;;;;;;6.28;5.32;;;21.20;95.70;;;;;;5048723;28;20535;-42
2022/05/19 00:47:56;;;;;;;7.82;6.10;;;21.20;95.80;;;;;;5047540;28;20061;-42
2022/05/19 00:50:34;;;;;;;7.90;5.70;;;21.20;95.80;;;;;;5048846;28;20131;-41
2022/05/19 00:53:24;;;;;;;7.55;6.10;;;21.20;95.90;;;;;;5047980;28;20032;-40
2022/05/19 00:55:51;;;;;;;10.13;7.22;;;21.20;96.00;;;;;;5048213;28;20024;-41
2022/05/19 00:58:22;;;;;;;7.88;6.50;;;21.10;96.00;;;;;;5048592;28;20020;-42
2022/05/19 01:00:48;;;;;;;10.73;8.15;;;21.10;96.00;;;;;;5047626;28;20052;-41
2022/05/19 01:03:15;;;;;;;11.77;8.50;;;21.10;96.20;;;;;;5047731;28;20756;-41
2022/05/19 01:05:50;;;;;;;9.07;8.07;;;21.10;96.20;;;;;;5048344;28;20036;-40
2022/05/19 01:08:38;;;;;;;8.77;7.10;;;21.10;96.60;;;;;;5046740;28;20028;-40
2022/05/19 01:11:06;;;;;;;8.68;7.15;;;21.10;96.40;;;;;;5048350;28;20059;-41
2022/05/19 01:13:31;;;;;;;7.93;6.65;;;21.00;96.40;;;;;;5047293;28;20025;-41
2022/05/19 01:15:59;;;;;;;9.75;7.55;;;21.00;96.40;;;;;;5047622;28;20032;-41
2022/05/19 01:18:27;;;;;;;11.73;8.82;;;21.00;96.60;;;;;;5047706;28;20036;-41
2022/05/19 01:20:54;;;;;;;10.55;7.88;;;21.00;96.60;;;;;;5046968;28;20036;-39
2022/05/19 01:23:26;;;;;;;7.88;6.90;;;21.00;96.70;;;;;;5047419;28;20029;-41
2022/05/19 01:26:21;;;;;;;12.23;8.63;;;21.00;96.70;;;;;;5048445;28;20033;-39
2022/05/19 01:28:47;;;;;;;10.82;8.75;;;20.90;96.80;;;;;;5046619;28;20112;-41
2022/05/19 01:31:54;;;;;;;11.52;10.15;;;20.90;96.80;;;;;;5047308;28;20127;-41
2022/05/19 01:34:24;;;;;;;11.90;8.52;;;20.90;97.00;;;;;;5039119;28;20037;-41
2022/05/19 01:36:50;;;;;;;12.20;9.43;;;20.90;97.00;;;;;;5046842;28;20107;-41
2022/05/19 01:39:28;;;;;;;13.20;10.18;;;20.90;97.10;;;;;;5046904;28;20131;-41
2022/05/19 01:42:18;;;;;;;11.13;9.15;;;20.90;97.20;;;;;;5047280;28;20061;-42
2022/05/19 01:45:04;;;;;;;10.90;8.85;;;20.90;97.30;;;;;;5047390;28;20090;-40
2022/05/19 01:47:41;;;;;;;11.02;9.93;;;20.90;97.30;;;;;;5047120;28;20074;-40
2022/05/19 01:50:21;;;;;;;10.23;8.60;;;20.80;97.30;;;;;;5046365;28;20043;-40
2022/05/19 01:52:56;;;;;;;10.50;9.27;;;20.80;97.40;;;;;;5047173;28;20087;-41
2022/05/19 01:55:36;;;;;;;11.45;9.95;;;20.80;97.40;;;;;;5043619;28;20052;-42
2022/05/19 01:58:20;;;;;;;12.35;10.68;;;20.80;97.50;;;;;;5046989;28;20036;-42
2022/05/19 02:00:49;;;;;;;11.88;9.73;;;20.80;97.60;;;;;;5045092;28;20041;-40
2022/05/19 02:03:40;;;;;;;12.63;10.05;;;20.80;97.60;;;;;;5046268;28;20163;-42
2022/05/19 02:06:27;;;;;;;13.82;11.10;;;20.70;97.70;;;;;;5047075;28;20404;-42
2022/05/19 02:08:58;;;;;;;15.05;10.95;;;20.70;97.70;;;;;;5046660;28;20029;-41
2022/05/19 02:11:47;;;;;;;11.05;9.60;;;20.70;97.80;;;;;;5046261;28;20068;-40
2022/05/19 02:14:17;;;;;;;11.20;9.82;;;20.70;97.90;;;;;;5046929;28;20048;-42
2022/05/19 02:16:44;;;;;;;11.88;9.77;;;20.70;97.90;;;;;;5046956;28;20139;-42
2022/05/19 02:19:13;;;;;;;12.65;10.05;;;20.70;97.90;;;;;;5045882;28;20028;-42
2022/05/19 02:21:39;;;;;;;12.05;10.40;;;20.70;98.00;;;;;;5034409;28;20033;-42
2022/05/19 02:24:08;;;;;;;12.23;10.27;;;20.70;98.00;;;;;;5047552;28;20107;-42
2022/05/19 02:26:35;;;;;;;10.07;8.63;;;20.70;98.10;;;;;;5045142;28;20044;-43
2022/05/19 02:29:08;;;;;;;9.77;8.75;;;20.70;98.10;;;;;;5047229;28;20111;-42
2022/05/19 02:31:34;;;;;;;12.20;10.57;;;20.70;98.10;;;;;;5042635;28;20040;-41
2022/05/19 02:33:59;;;;;;;10.65;9.23;;;20.70;98.20;;;;;;5046750;28;20025;-40
2022/05/19 02:36:25;;;;;;;13.15;10.30;;;20.70;98.30;;;;;;5045889;28;20033;-40
2022/05/19 02:38:51;;;;;;;14.65;11.68;;;20.60;98.30;;;;;;5045890;28;20040;-41
2022/05/19 02:41:16;;;;;;;14.05;11.32;;;20.60;98.30;;;;;;5046055;28;20037;-41
2022/05/19 02:43:42;;;;;;;11.80;10.57;;;20.60;98.40;;;;;;5045900;28;20037;-42
2022/05/19 02:46:07;;;;;;;12.68;11.38;;;20.60;98.70;;;;;;5045196;28;20117;-41
2022/05/19 02:48:33;;;;;;;12.77;10.55;;;20.60;98.50;;;;;;5046122;28;20230;-39
2022/05/19 02:51:00;;;;;;;12.10;10.82;;;20.60;98.50;;;;;;5046204;28;20020;-41
2022/05/19 02:53:26;;;;;;;11.90;10.68;;;20.60;98.60;;;;;;5045042;28;20021;-41
2022/05/19 02:55:52;;;;;;;10.75;9.70;;;20.60;98.60;;;;;;5046535;28;20167;-41
2022/05/19 02:58:18;;;;;;;11.77;9.93;;;20.50;98.60;;;;;;5045920;28;20540;-41
2022/05/19 03:00:46;;;;;;;15.48;11.35;;;20.50;98.70;;;;;;5045169;28;20053;-42
2022/05/19 03:03:12;;;;;;;11.68;10.15;;;20.50;98.70;;;;;;5046503;28;20036;-42
2022/05/19 03:05:39;;;;;;;12.60;10.00;;;20.50;98.80;;;;;;5046145;28;20017;-41
2022/05/19 03:08:06;;;;;;;12.18;9.77;;;20.50;98.80;;;;;;5045128;28;20549;-41
2022/05/19 03:10:33;;;;;;;9.35;8.23;;;20.50;98.80;;;;;;5045189;28;20082;-41
2022/05/19 03:12:58;;;;;;;14.27;10.15;;;20.50;98.80;;;;;;5046072;28;20155;-41
2022/05/19 03:15:24;;;;;;;13.32;11.45;;;20.50;98.80;;;;;;5045001;28;20025;-42
2022/05/19 03:17:50;;;;;;;11.30;9.88;;;20.60;98.80;;;;;;5045785;28;20044;-41
2022/05/19 03:20:16;;;;;;;13.25;10.70;;;20.60;98.80;;;;;;5045858;28;20025;-41
2022/05/19 03:22:42;;;;;;;12.40;10.93;;;20.60;98.80;;;;;;5044468;28;20029;-41
2022/05/19 03:25:08;;;;;;;9.85;8.80;;;20.60;98.80;;;;;;5045717;28;20024;-40
2022/05/19 03:27:36;;;;;;;11.82;10.20;;;20.70;98.80;;;;;;5044540;28;20082;-41
2022/05/19 03:30:02;;;;;;;12.27;10.05;;;20.70;98.80;;;;;;5045912;28;20143;-41
2022/05/19 03:32:28;;;;;;;13.02;11.70;;;20.70;98.80;;;;;;5043598;28;20036;-42
2022/05/19 03:34:53;;;;;;;11.07;9.80;;;20.70;98.80;;;;;;5045280;28;20384;-42
2022/05/19 03:37:19;;;;;;;12.10;10.02;;;20.70;98.80;;;;;;5045574;28;20029;-41
2022/05/19 03:39:44;;;;;;;11.63;8.85;;;20.60;98.80;;;;;;5045643;28;20680;-41
2022/05/19 03:42:10;;;;;;;9.70;8.65;;;20.60;98.80;;;;;;5044977;28;20492;-41
2022/05/19 03:44:36;;;;;;;9.93;8.93;;;20.60;98.80;;;;;;5045062;28;20025;-43
2022/05/19 03:47:03;;;;;;;10.93;8.75;;;20.60;98.80;;;;;;5045630;28;20025;-42
2022/05/19 03:49:28;;;;;;;13.35;10.80;;;20.60;98.80;;;;;;5043942;28;20391;-42
2022/05/19 03:51:54;;;;;;;11.85;10.60;;;20.60;98.70;;;;;;5044067;28;20028;-41
2022/05/19 03:54:20;;;;;;;10.10;9.10;;;20.70;98.70;;;;;;5044973;28;20574;-42
2022/05/19 03:56:46;;;;;;;7.82;6.72;;;20.70;98.70;;;;;;5044775;28;20477;-41
2022/05/19 03:59:11;;;;;;;8.20;7.40;;;20.70;98.60;;;;;;5044632;28;20051;-43
2022/05/19 04:01:37;;;;;;;9.70;8.60;;;20.80;98.60;;;;;;5044922;28;20047;-41
2022/05/19 04:04:02;;;;;;;8.13;7.32;;;20.80;98.50;;;;;;5043989;28;20029;-42
2022/05/19 04:06:28;;;;;;;8.65;7.82;;;20.80;98.50;;;;;;5044785;28;20523;-42
2022/05/19 04:08:54;;;;;;;9.18;6.70;;;20.80;98.70;;;;;;5045443;28;20043;-43
2022/05/19 04:11:19;;;;;;;10.82;8.18;;;20.90;98.40;;;;;;5044023;28;20475;-42
2022/05/19 04:13:45;;;;;;;8.13;6.63;;;20.90;98.30;;;;;;5045045;28;20021;-40
2022/05/19 04:16:11;;;;;;;6.13;5.53;;;20.90;98.30;;;;;;5045329;28;20031;-42
2022/05/19 04:18:37;;;;;;;8.02;5.63;;;20.90;98.20;;;;;;5044176;28;20025;-41
2022/05/19 04:21:03;;;;;;;6.18;5.25;;;21.00;98.20;;;;;;5045109;28;20137;-41
2022/05/19 04:23:28;;;;;;;5.72;4.57;;;21.00;98.20;;;;;;5043892;28;20519;-42
2022/05/19 04:25:55;;;;;;;4.78;4.38;;;21.00;98.10;;;;;;5044467;28;20032;-42
2022/05/19 04:28:20;;;;;;;5.13;4.22;;;21.00;98.00;;;;;;5044436;28;20045;-42
2022/05/19 04:30:46;;;;;;;4.03;3.63;;;21.00;97.90;;;;;;5044232;28;20033;-43
2022/05/19 04:33:11;;;;;;;4.00;3.10;;;21.00;97.90;;;;;;5045197;28;20029;-41
2022/05/19 04:35:39;;;;;;;4.78;2.90;;;21.00;97.80;;;;;;5044608;28;20025;-42
2022/05/19 04:38:10;;;;;;;4.15;2.67;;;21.00;97.70;;;;;;5044033;28;20021;-43
2022/05/19 04:40:43;;;;;;;2.47;2.28;;;21.00;97.70;;;;;;5044751;28;20043;-40
2022/05/19 04:43:09;;;;;;;3.15;2.85;;;21.10;97.60;;;;;;5044641;28;20037;-39
2022/05/19 04:45:35;;;;;;;2.40;2.20;;;21.10;97.50;;;;;;5047480;28;20025;-40
2022/05/19 04:48:01;;;;;;;1.77;1.60;;;21.00;97.50;;;;;;5049061;28;20039;-41
2022/05/19 04:50:27;;;;;;;3.17;1.63;;;21.00;97.40;;;;;;5048019;28;20021;-42
2022/05/19 04:52:57;;;;;;;1.85;1.70;;;21.10;97.40;;;;;;5047911;28;20033;-40
2022/05/19 04:55:22;;;;;;;3.03;1.92;;;21.10;97.40;;;;;;5048319;28;20482;-43
2022/05/19 04:57:47;;;;;;;3.38;2.03;;;21.10;97.30;;;;;;5048073;28;20032;-40
2022/05/19 05:00:15;;;;;;;1.92;1.70;;;21.10;97.30;;;;;;5047213;28;20052;-42
2022/05/19 05:02:40;;;;;;;1.67;1.58;;;21.10;97.20;;;;;;5047837;28;20570;-40
2022/05/19 05:05:07;;;;;;;2.05;1.55;;;21.10;97.20;;;;;;5047935;28;20021;-41
2022/05/19 05:07:32;;;;;;;2.35;1.80;;;21.10;97.20;;;;;;5047313;28;20182;-41
2022/05/19 05:09:58;;;;;;;2.65;1.65;;;21.10;97.10;;;;;;5047887;28;20024;-42
2022/05/19 05:12:23;;;;;;;1.60;1.40;;;21.10;97.10;;;;;;5047465;28;20053;-41
2022/05/19 05:14:49;;;;;;;1.75;1.50;;;21.00;97.10;;;;;;5047527;28;20468;-41
2022/05/19 05:17:15;;;;;;;2.33;1.70;;;21.10;97.10;;;;;;5047968;28;20021;-42
2022/05/19 05:19:41;;;;;;;2.22;1.40;;;21.10;97.00;;;;;;5047916;28;20029;-42
2022/05/19 05:22:07;;;;;;;1.63;1.50;;;21.10;96.90;;;;;;5046596;28;20451;-41
2022/05/19 05:24:33;;;;;;;1.50;1.40;;;21.20;96.90;;;;;;5047015;28;20821;-41
2022/05/19 05:26:59;;;;;;;2.03;1.42;;;21.30;96.70;;;;;;5047103;28;20461;-39
2022/05/19 05:29:24;;;;;;;1.25;1.13;;;21.30;96.60;;;;;;5047708;28;20036;-41
2022/05/19 05:31:50;;;;;;;1.60;1.40;;;21.30;96.40;;;;;;5048004;28;20025;-41
2022/05/19 05:34:16;;;;;;;1.77;1.60;;;21.30;96.00;;;;;;5046945;28;20108;-43
2022/05/19 05:36:44;;;;;;;1.75;1.63;;;21.30;95.70;;;;;;5046832;28;20052;-41
2022/05/19 05:39:10;;;;;;;2.17;1.60;;;21.20;95.90;;;;;;5048307;28;20029;-41
2022/05/19 05:41:36;;;;;;;2.20;1.80;;;21.10;96.00;;;;;;5046744;28;20087;-41
2022/05/19 05:44:02;;;;;;;2.35;1.70;;;21.10;96.10;;;;;;5047079;28;20033;-40
2022/05/19 05:46:27;;;;;;;1.83;1.50;;;21.00;96.00;;;;;;5047159;28;20491;-42
2022/05/19 05:48:53;;;;;;;1.70;1.60;;;20.90;96.10;;;;;;5037882;28;20029;-42
2022/05/19 05:51:19;;;;;;;2.00;1.60;;;20.90;96.00;;;;;;5051385;28;20052;-42
2022/05/19 05:53:45;;;;;;;1.85;1.73;;;20.90;96.00;;;;;;5053649;28;20021;-41
2022/05/19 05:56:15;;;;;;;1.70;1.60;;;20.90;96.10;;;;;;5060773;28;20458;-40
2022/05/19 05:58:41;;;;;;;1.73;1.60;;;20.90;96.10;;;;;;5046204;28;20103;-42
2022/05/19 06:01:10;;;;;;;2.22;1.50;;;21.00;96.40;;;;;;5044898;28;20106;-40
2022/05/19 06:03:37;;;;;;;2.65;1.58;;;21.10;96.00;;;;;;5041433;28;20094;-41
2022/05/19 06:06:04;;;;;;;1.67;1.52;;;21.20;95.90;;;;;;5046546;28;20061;-41
2022/05/19 06:08:29;;;;;;;1.60;1.50;;;21.20;95.90;;;;;;5045606;28;20033;-41
2022/05/19 06:10:55;;;;;;;2.33;1.27;;;21.30;95.90;;;;;;5045633;28;20029;-41
2022/05/19 06:13:21;;;;;;;1.40;1.30;;;21.30;95.90;;;;;;5044603;28;20020;-42
2022/05/19 06:15:47;;;;;;;2.42;1.35;;;21.30;96.20;;;;;;5046074;28;20151;-40
2022/05/19 06:18:12;;;;;;;3.92;1.50;;;21.30;96.00;;;;;;5046298;28;20115;-42
2022/05/19 06:20:39;;;;;;;1.75;1.40;;;21.30;96.20;;;;;;5046530;28;20119;-37
2022/05/19 06:23:05;;;;;;;1.63;1.40;;;21.30;96.30;;;;;;5046048;28;20035;-42
2022/05/19 06:25:32;;;;;;;2.20;1.40;;;21.30;96.50;;;;;;5045397;28;20033;-41
2022/05/19 06:27:59;;;;;;;1.70;1.42;;;21.30;96.70;;;;;;5046294;28;20041;-42
2022/05/19 06:30:24;;;;;;;2.38;1.38;;;21.30;96.90;;;;;;5045171;28;20051;-40
2022/05/19 06:32:50;;;;;;;2.20;1.40;;;21.30;97.10;;;;;;5046039;28;20516;-41
2022/05/19 06:35:22;;;;;;;1.73;1.63;;;21.40;97.20;;;;;;5045795;28;20028;-41
2022/05/19 06:37:47;;;;;;;1.30;1.20;;;21.50;97.30;;;;;;5044435;28;20029;-40
2022/05/19 06:40:15;;;;;;;1.70;1.50;;;21.60;97.30;;;;;;5044419;28;20108;-42
2022/05/19 06:42:42;;;;;;;1.60;1.50;;;21.70;97.30;;;;;;5044784;28;20044;-41
2022/05/19 06:45:08;;;;;;;3.65;1.40;;;21.80;97.30;;;;;;5045767;28;20017;-38
2022/05/19 06:47:35;;;;;;;1.60;1.40;;;21.80;97.60;;;;;;5045862;28;20033;-39
2022/05/19 06:50:00;;;;;;;1.60;1.45;;;21.90;97.30;;;;;;5045549;28;20020;-42
2022/05/19 06:52:29;;;;;;;1.63;1.45;;;21.90;97.30;;;;;;5045249;28;20040;-40
2022/05/19 06:54:56;;;;;;;1.55;1.45;;;21.90;97.30;;;;;;5045843;28;20025;-43
2022/05/19 06:57:24;;;;;;;1.65;1.10;;;22.00;97.40;;;;;;5045942;28;20029;-40
2022/05/19 06:59:51;;;;;;;2.03;1.20;;;22.00;97.30;;;;;;5044539;28;20198;-38
2022/05/19 07:02:22;;;;;;;1.38;1.27;;;22.00;97.30;;;;;;5045496;28;20120;-42
2022/05/19 07:04:48;;;;;;;1.30;1.20;;;22.10;97.30;;;;;;5046060;28;20032;-42
2022/05/19 07:07:14;;;;;;;1.50;1.40;;;22.10;97.20;;;;;;5043606;28;20041;-42
2022/05/19 07:09:45;;;;;;;1.40;1.30;;;22.10;97.20;;;;;;5043724;28;20040;-42
2022/05/19 07:12:12;;;;;;;1.65;1.25;;;22.20;97.20;;;;;;5044424;28;20381;-41
2022/05/19 07:14:38;;;;;;;1.65;1.55;;;22.20;97.10;;;;;;5043336;28;20029;-41
2022/05/19 07:17:04;;;;;;;1.45;1.35;;;22.30;97.10;;;;;;5044970;28;20029;-43
2022/05/19 07:22:22;;;;;;;1.60;1.42;;;22.50;97.00;;;;;;5046200;28;20036;-43
2022/05/19 07:24:48;;;;;;;3.58;1.40;;;22.50;96.80;;;;;;5045334;28;20041;-42
2022/05/19 07:27:14;;;;;;;1.40;1.30;;;22.50;96.70;;;;;;5045640;28;20033;-41
2022/05/19 07:29:41;;;;;;;1.80;1.40;;;22.60;96.60;;;;;;5045443;28;20021;-42
2022/05/19 07:32:07;;;;;;;2.67;1.40;;;22.60;96.60;;;;;;5045151;28;20020;-43
2022/05/19 07:34:35;;;;;;;1.38;1.27;;;22.70;96.50;;;;;;5042031;28;20025;-40
2022/05/19 07:37:00;;;;;;;1.65;1.30;;;22.70;96.40;;;;;;5043132;28;20068;-42
2022/05/19 07:39:26;;;;;;;2.67;1.30;;;22.80;96.30;;;;;;5043180;28;20441;-42
2022/05/19 07:41:55;;;;;;;1.95;1.20;;;22.80;96.20;;;;;;5039363;28;20025;-41
2022/05/19 07:44:21;;;;;;;1.63;1.35;;;22.80;96.00;;;;;;5042258;28;20025;-41
2022/05/19 07:46:48;;;;;;;1.33;1.23;;;22.70;96.10;;;;;;5044809;28;20029;-41
2022/05/19 07:49:14;;;;;;;3.30;1.95;;;22.70;96.20;;;;;;5044638;28;20800;-42
2022/05/19 07:51:41;;;;;;;1.70;1.60;;;22.70;96.40;;;;;;5044600;28;20021;-40
2022/05/19 07:54:14;;;;;;;1.80;1.70;;;22.70;96.40;;;;;;5045468;28;20432;-42
2022/05/19 07:56:41;;;;;;;2.00;1.83;;;22.80;96.50;;;;;;5044915;28;20115;-41
2022/05/19 07:59:08;;;;;;;2.50;1.70;;;22.90;96.40;;;;;;5045280;28;20049;-41
2022/05/19 08:01:34;;;;;;;1.60;1.40;;;22.90;96.40;;;;;;5044546;28;20053;-40
2022/05/19 08:04:00;;;;;;;1.63;1.40;;;23.00;96.40;;;;;;5044735;28;20128;-42
2022/05/19 08:06:28;;;;;;;1.60;1.50;;;23.00;96.40;;;;;;5044261;28;20111;-42
2022/05/19 08:08:54;;;;;;;2.00;1.80;;;23.10;96.50;;;;;;5043426;28;20083;-41
2022/05/19 08:11:20;;;;;;;1.60;1.30;;;23.20;96.40;;;;;;5043830;28;20161;-41
2022/05/19 08:16:33;;;;;;;3.83;1.67;;;23.40;96.20;;;;;;5040518;28;20094;-41
2022/05/19 08:18:59;;;;;;;2.30;1.50;;;23.50;96.10;;;;;;5045778;28;20033;-41
2022/05/19 08:21:24;;;;;;;1.70;1.60;;;23.60;96.00;;;;;;5048815;28;20117;-42
2022/05/19 08:23:53;;;;;;;2.08;1.50;;;23.70;95.90;;;;;;5048734;28;20045;-41
2022/05/19 08:26:19;;;;;;;2.13;1.52;;;23.80;95.90;;;;;;5049147;28;20017;-42
2022/05/19 08:28:46;;;;;;;1.67;1.30;;;23.90;95.70;;;;;;5048933;28;20045;-42
2022/05/19 08:31:32;;;;;;;1.63;1.30;;;23.90;95.60;;;;;;5049200;28;20439;-42
2022/05/19 08:33:58;;;;;;;2.13;1.50;;;24.00;95.90;;;;;;5049652;28;20079;-39
2022/05/19 08:36:25;;;;;;;1.42;1.33;;;24.10;95.50;;;;;;5048585;28;20432;-43
2022/05/19 08:38:51;;;;;;;2.08;1.40;;;24.20;95.30;;;;;;5048273;28;20477;-43
2022/05/19 08:41:35;;;;;;;1.67;1.58;;;24.30;95.30;;;;;;5049090;28;20036;-42
2022/05/19 08:44:35;;;;;;;1.60;1.50;;;24.30;95.30;;;;;;5045475;28;20037;-44
2022/05/19 08:47:03;;;;;;;2.83;1.90;;;24.40;95.20;;;;;;5031056;28;20106;-47
2022/05/19 08:49:45;;;;;;;2.70;1.60;;;24.40;94.90;;;;;;5048589;28;20017;-42
2022/05/19 08:52:25;;;;;;;5.45;2.10;;;24.40;94.90;;;;;;5048068;28;20025;-43
2022/05/19 08:54:54;;;;;;;1.92;1.73;;;24.50;94.70;;;;;;5038429;28;20025;-42
2022/05/19 08:57:44;;;;;;;2.33;2.10;;;24.50;94.70;;;;;;5048214;28;20030;-43
2022/05/19 09:00:22;;;;;;;3.97;2.03;;;24.60;94.60;;;;;;5037943;28;20056;-43
2022/05/19 09:02:54;;;;;;;1.90;1.80;;;24.60;94.50;;;;;;5048056;28;20025;-43
2022/05/19 09:05:54;;;;;;;2.25;2.00;;;24.60;94.50;;;;;;5047695;28;20131;-42
2022/05/19 09:08:38;;;;;;;1.60;1.50;;;24.60;94.40;;;;;;5048347;28;20082;-41
2022/05/19 09:11:04;;;;;;;2.65;1.85;;;24.70;94.30;;;;;;5048428;28;20102;-41
2022/05/19 09:13:38;;;;;;;2.03;1.83;;;24.70;94.20;;;;;;5046799;28;20024;-42
2022/05/19 09:16:17;;;;;;;2.58;1.77;;;24.80;94.20;;;;;;5047743;28;20021;-43
2022/05/19 09:19:10;;;;;;;1.50;1.40;;;24.90;94.20;;;;;;5047542;28;20188;-43
2022/05/19 09:21:38;;;;;;;1.40;1.30;;;25.00;94.30;;;;;;5047699;28;20031;-41
2022/05/19 09:24:05;;;;;;;3.72;1.73;;;25.00;93.90;;;;;;5047953;28;20032;-42
2022/05/19 09:26:52;;;;;;;3.60;1.73;;;25.20;93.90;;;;;;5046629;28;20032;-41
2022/05/19 09:29:31;;;;;;;2.22;2.03;;;25.20;93.70;;;;;;5047599;28;20206;-41
2022/05/19 09:32:30;;;;;;;1.83;1.70;;;25.30;93.70;;;;;;5048178;28;20032;-42
2022/05/19 09:35:05;;;;;;;2.15;1.80;;;25.40;93.70;;;;;;5047165;28;20052;-42
2022/05/19 09:37:49;;;;;;;2.65;2.30;;;25.50;93.50;;;;;;5027375;28;20021;-41
2022/05/19 09:40:25;;;;;;;2.13;1.90;;;25.60;93.50;;;;;;5043279;28;20099;-42
2022/05/19 09:42:53;;;;;;;3.40;2.25;;;25.70;93.30;;;;;;5048043;28;20036;-42
2022/05/19 09:45:24;;;;;;;2.17;2.00;;;25.80;93.20;;;;;;5047119;28;20083;-42
2022/05/19 09:47:53;;;;;;;4.15;2.25;;;26.00;93.10;;;;;;5027437;28;20032;-42
2022/05/19 09:50:24;;;;;;;1.92;1.80;;;26.10;93.00;;;;;;5041582;28;20024;-42
2022/05/19 09:52:50;;;;;;;2.28;2.10;;;26.20;92.90;;;;;;5047139;28;20031;-41
2022/05/19 09:55:23;;;;;;;2.35;1.80;;;26.30;92.80;;;;;;5046399;28;20029;-43
2022/05/19 09:57:51;;;;;;;2.63;2.17;;;26.30;92.60;;;;;;5046892;28;20036;-42
2022/05/19 10:00:36;;;;;;;3.65;2.22;;;26.30;92.60;;;;;;5046216;28;20400;-42
2022/05/19 10:03:03;;;;;;;2.20;2.00;;;26.30;92.50;;;;;;5046558;28;20041;-42
2022/05/19 10:05:35;;;;;;;2.28;2.08;;;26.30;92.50;;;;;;5046239;28;20069;-42
2022/05/19 10:08:12;;;;;;;3.45;1.95;;;26.30;92.40;;;;;;5047286;28;20481;-41
2022/05/19 10:10:59;;;;;;;2.28;1.80;;;26.30;92.40;;;;;;5046282;28;20090;-41
2022/05/19 10:13:32;;;;;;;2.10;1.92;;;26.20;92.40;;;;;;5046556;28;20028;-43
2022/05/19 10:16:11;;;;;;;2.78;1.98;;;26.20;92.40;;;;;;5045907;28;20071;-43
2022/05/19 10:19:14;;;;;;;2.45;1.95;;;26.10;92.30;;;;;;5046409;28;20036;-40
2022/05/19 10:22:04;;;;;;;2.17;2.00;;;26.00;92.30;;;;;;5042234;28;20041;-42
2022/05/19 10:24:52;;;;;;;2.00;1.80;;;26.00;92.30;;;;;;5045898;28;20047;-43
2022/05/19 10:33:17;;;;;;;1.75;1.65;;;25.70;92.20;;;;;;5036313;28;20060;-43
2022/05/19 10:35:55;;;;;;;1.50;1.30;;;25.80;92.30;;;;;;5046160;28;20020;-42
2022/05/19 10:38:41;;;;;;;3.13;2.25;;;25.70;92.20;;;;;;5035793;28;20547;-43
2022/05/19 10:41:34;;;;;;;1.75;1.48;;;25.80;92.00;;;;;;5046063;28;20025;-42
2022/05/19 10:44:20;;;;;;;2.15;1.50;;;25.80;91.90;;;;;;5045881;28;20041;-43
2022/05/19 10:46:57;;;;;;;1.60;1.50;;;25.80;91.80;;;;;;5004919;28;20033;-43
2022/05/19 10:49:57;;;;;;;2.50;1.50;;;25.90;91.60;;;;;;5045991;28;20377;-43
2022/05/19 10:52:44;;;;;;;2.38;1.40;;;26.10;91.40;;;;;;5044959;28;20037;-40
2022/05/19 10:55:19;;;;;;;2.60;1.65;;;26.30;91.20;;;;;;5026655;28;20036;-42
2022/05/19 10:58:01;;;;;;;2.17;1.70;;;26.30;91.00;;;;;;5041464;28;20051;-42
2022/05/19 11:00:56;;;;;;;1.85;1.40;;;26.30;90.90;;;;;;5025503;28;20584;-42
2022/05/19 11:03:37;;;;;;;2.72;1.70;;;26.40;90.80;;;;;;4989497;28;20048;-42
2022/05/19 11:06:28;;;;;;;1.65;1.52;;;26.50;90.70;;;;;;5045449;28;20032;-42
2022/05/19 11:09:37;;;;;;;1.57;1.47;;;26.60;90.60;;;;;;5043955;28;20047;-42
2022/05/19 11:12:14;;;;;;;1.70;1.45;;;26.80;90.60;;;;;;5045186;28;20283;-42
2022/05/19 11:15:17;;;;;;;1.42;1.33;;;26.90;90.50;;;;;;5045602;28;20479;-42
2022/05/19 11:17:58;;;;;;;1.88;1.40;;;27.00;90.30;;;;;;5044735;28;20412;-42
2022/05/19 11:20:47;;;;;;;2.45;1.52;;;27.10;90.20;;;;;;5044863;28;20040;-44
2022/05/19 11:23:20;;;;;;;1.92;1.75;;;27.20;90.10;;;;;;5003956;28;20120;-42
2022/05/19 11:28:57;;;;;;;1.63;1.50;;;27.30;89.70;;;;;;5045056;28;20059;-42
2022/05/19 11:31:46;;;;;;;1.83;1.60;;;27.20;89.70;;;;;;5025507;28;20474;-42
2022/05/19 11:34:43;;;;;;;1.50;1.40;;;27.20;89.60;;;;;;5043204;28;20116;-43
2022/05/19 11:37:36;;;;;;;1.73;1.25;;;27.10;89.60;;;;;;5045662;28;20481;-42
2022/05/19 11:40:16;;;;;;;1.75;1.33;;;27.10;89.70;;;;;;5044718;28;20393;-42
2022/05/19 11:42:52;;;;;;;3.17;1.27;;;27.00;89.70;;;;;;5045264;28;20029;-41
2022/05/19 11:45:48;;;;;;;1.73;1.30;;;26.90;89.90;;;;;;5045406;28;20057;-42
2022/05/19 11:57:29;;;;;;;1.60;1.50;;;26.50;90.30;;;;;;5029717;28;20048;-38
2022/05/19 11:59:57;;;;;;;2.33;1.55;;;26.40;90.50;;;;;;5046081;28;20028;-42
2022/05/19 12:02:35;;;;;;;5.43;1.80;;;26.30;90.70;;;;;;5068682;28;20400;-40
2022/05/19 12:05:10;;;;;;;2.15;1.95;;;26.20;91.40;;;;;;5069286;28;20494;-38
2022/05/19 12:07:50;;;;;;;4.28;2.25;;;26.10;91.30;;;;;;5048952;28;20091;-43
2022/05/19 12:10:23;;;;;;;2.30;1.80;;;25.90;91.40;;;;;;5065460;28;20120;-42
2022/05/19 12:12:59;;;;;;;3.15;2.05;;;25.90;91.60;;;;;;5069504;28;20063;-42
2022/05/19 12:15:34;;;;;;;3.67;2.28;;;25.70;91.70;;;;;;5067819;28;20123;-42
2022/05/19 12:18:10;;;;;;;5.82;3.17;;;25.60;92.00;;;;;;5069330;28;20032;-42
2022/05/19 12:20:51;;;;;;;8.60;2.40;;;25.40;93.00;;;;;;5068676;28;20031;-43
2022/05/19 12:23:31;;;;;;;18.73;2.30;;;24.70;95.20;;;;;;5068190;28;20484;-41
2022/05/19 12:26:20;;;;;;;9.05;1.95;;;23.10;97.10;;;;;;5069056;28;20016;-43
2022/05/19 12:29:11;;;;;;;4.78;1.13;;;21.30;98.70;;;;;;5068351;28;20033;-42
2022/05/19 12:31:56;;;;;;;2.67;1.10;;;19.90;99.90;;;;;;5068020;28;20024;-43
2022/05/19 12:34:31;;;;;;;1.95;0.70;;;19.10;99.90;;;;;;5069025;28;20032;-42
2022/05/19 12:37:48;;;;;;;2.83;0.82;;;18.50;99.90;;;;;;5068418;28;20032;-43
2022/05/19 12:40:22;;;;;;;1.98;0.77;;;18.10;99.90;;;;;;5034188;28;20115;-44
2022/05/19 12:42:49;;;;;;;2.08;1.02;;;17.90;99.90;;;;;;5068876;28;20094;-41
2022/05/19 12:45:26;;;;;;;3.25;1.40;;;17.80;99.90;;;;;;5068086;28;20020;-44
2022/05/19 12:48:31;;;;;;;4.93;2.00;;;17.80;99.90;;;;;;5069013;28;20056;-42
2022/05/19 12:51:05;;;;;;;4.05;1.98;;;17.70;99.90;;;;;;5068114;28;20044;-42
2022/05/19 12:53:39;;;;;;;6.13;2.22;;;17.70;99.90;;;;;;5068386;28;20070;-43
2022/05/19 12:56:06;;;;;;;3.63;1.88;;;17.70;99.90;;;;;;5068127;28;20067;-42
2022/05/19 12:58:37;;;;;;;2.65;1.95;;;17.70;99.90;;;;;;5066973;28;20574;-43
2022/05/19 13:01:16;;;;;;;5.50;2.20;;;17.80;99.90;;;;;;5068451;28;20161;-43
2022/05/19 13:03:51;;;;;;;4.35;2.40;;;17.90;99.90;;;;;;5068267;28;20044;-43
2022/05/19 13:06:22;;;;;;;4.90;2.70;;;18.00;99.90;;;;;;5066982;28;20027;-43
2022/05/19 13:08:54;;;;;;;2.90;2.33;;;18.00;99.90;;;;;;5068067;28;20040;-42
2022/05/19 13:11:24;;;;;;;4.20;2.70;;;18.10;99.90;;;;;;5067827;28;20051;-42
2022/05/19 13:13:55;;;;;;;4.30;2.72;;;18.20;99.90;;;;;;5068588;28;20029;-42
2022/05/19 13:16:25;;;;;;;4.75;2.65;;;18.10;99.90;;;;;;5068261;28;20021;-42
2022/05/19 13:18:53;;;;;;;4.63;2.88;;;18.20;99.90;;;;;;5067505;28;20028;-42
2022/05/19 13:21:27;;;;;;;3.45;2.35;;;18.20;99.90;;;;;;5068291;28;20700;-42
2022/05/19 13:23:53;;;;;;;3.45;2.53;;;18.10;99.90;;;;;;5068269;28;20581;-43
2022/05/19 13:26:29;;;;;;;4.90;2.80;;;18.10;99.90;;;;;;5067113;28;20021;-43
2022/05/19 13:32:06;;;;;;;4.57;3.05;;;18.10;99.90;;;;;;5067586;28;20274;-43
2022/05/19 13:34:44;;;;;;;4.35;2.95;;;18.10;99.90;;;;;;5066670;28;20522;-43